Flight Track Log - Related Links

Times and Time Zones

All times are in EDT time to prevent confusion due to time zone crossing. See the GJS3707 flight status page for this flight to view local times or setup timezone preferences in your user account.

Time Position Orientation Groundspeed Altitude Reporting Facility
EDT Latitude Longitude Course Direction KTS MPH feet Rate Location/Type
Thu 11:14:43 AM 42.0167 -87.9500 261° West 173 199 2,100  Level Chicago TRACON
Thu 11:15:49 AM 42.0667 -87.9833 334° Northwest 216 249 4,300 2,206 Climbing Chicago TRACON
Thu 11:16:00 AM 41.9333 -88.3189 270° West  Level FlightAware Approximate
Thu 11:16:59 AM 42.1333 -88.0369 329° Northwest 222 255 7,100  Level Chicago Center
Thu 11:17:00 AM 41.9167 -88.4586 270° West  Level FlightAware Approximate
Thu 11:18:00 AM 41.9011 -88.5997 261° West  Level FlightAware Approximate
Thu 11:18:01 AM 42.1192 -88.1394 259° West 278 320 9,100  Level Chicago Center
Thu 11:19:00 AM 41.8845 -88.7405 261° West  Level FlightAware Approximate
Thu 11:19:03 AM 42.0858 -88.2383 246° West 292 336 11,300  Level Chicago Center
Thu 11:20:05 AM 42.0353 -88.3389 236° Southwest 318 366 12,500 1,597 Climbing Chicago Center
Thu 11:21:07 AM 41.9672 -88.4692 235° Southwest 348 400 14,600 1,887 Climbing Chicago Center
Thu 11:22:09 AM 41.9497 -88.5964 260° West 351 404 16,400 1,500 Climbing Chicago Center
Thu 11:23:11 AM 41.9272 -88.7258 257° West 356 410 17,700 1,452 Climbing Chicago Center
Thu 11:24:13 AM 41.8975 -88.8581 253° West 371 427 19,400 1,694 Climbing Chicago Center
Thu 11:25:15 AM 41.8675 -89.0153 256° West 369 425 21,200 1,452 Climbing Chicago Center
Thu 11:26:17 AM 41.8461 -89.1503 258° West 371 427 22,400 1,152 Climbing Chicago Center
Thu 11:27:20 AM 41.8258 -89.2906 259° West 383 441 23,600 1,104 Climbing Chicago Center
Thu 11:28:22 AM 41.8214 -89.4325 268° West 386 444 24,700 1,065 Climbing Chicago Center
Thu 11:29:24 AM 41.8186 -89.5750 269° West 387 445 25,800 1,161 Climbing Chicago Center
Thu 11:30:26 AM 41.8158 -89.7492 269° West 392 451 27,100 1,113 Climbing Chicago Center
Thu 11:31:28 AM 41.8133 -89.8964 269° West 397 457 28,100 919 Climbing Chicago Center
Thu 11:32:30 AM 41.8089 -90.0328 268° West 399 459 29,000 871 Climbing Chicago Center
Thu 11:33:32 AM 41.8072 -90.1792 269° West 397 457 29,900 968 Climbing Chicago Center
Thu 11:34:34 AM 41.8031 -90.3539 268° West 396 456 31,000 968 Climbing Chicago Center
Thu 11:35:36 AM 41.7972 -90.5011 267° West 398 458 31,900 871 Climbing Chicago Center
Thu 11:36:38 AM 41.7928 -90.6458 268° West 393 452 32,800 871 Climbing Chicago Center
Thu 11:37:40 AM 41.7886 -90.7883 268° West 386 444 33,700 768 Climbing Chicago Center
Thu 11:38:43 AM 41.7847 -90.9275 268° West 378 435 34,400 672 Climbing Chicago Center
Thu 11:39:45 AM 41.7783 -91.0986 267° West 384 442 35,100 581 Climbing Chicago Center
Thu 11:40:47 AM 41.7739 -91.2414 268° West 386 444 35,600 435 Climbing Chicago Center
Thu 11:41:49 AM 41.7694 -91.3839 268° West 387 445 36,000 194 Climbing Chicago Center
Thu 11:42:51 AM 41.7636 -91.5308 267° West 394 453 36,000  Level Chicago Center
Thu 11:43:53 AM 41.7575 -91.6800 267° West 402 463 36,000  Level Chicago Center
Thu 11:44:55 AM 41.7506 -91.8622 267° West 409 471 36,000  Level Chicago Center
Thu 11:45:57 AM 41.7447 -92.0103 267° West 404 465 36,000  Level Chicago Center
Thu 11:46:59 AM 41.7383 -92.1569 267° West 399 459 36,000  Level Chicago Center
Thu 11:48:01 AM 41.7319 -92.2981 267° West 389 448 36,000  Level Chicago Center
Thu 11:49:04 AM 41.7253 -92.4411 266° West 387 445 36,000  Level Chicago Center
Thu 11:50:06 AM 41.7189 -92.5856 267° West 389 448 36,000  Level Chicago Center
Thu 11:50:49 AM 41.7144 -92.7019 267° West 386 444 36,000  Level Minneapolis Center
Thu 11:51:51 AM 41.7072 -92.8500 266° West 384 442 36,000  Level Minneapolis Center
Thu 11:52:53 AM 41.7011 -92.9917 267° West 385 443 36,000  Level Minneapolis Center
Thu 11:53:55 AM 41.6928 -93.1339 266° West 387 445 36,000  Level Minneapolis Center
Thu 11:54:57 AM 41.6836 -93.3128 266° West 399 459 36,000  Level Minneapolis Center
Thu 11:55:59 AM 41.6753 -93.4622 266° West 406 467 36,000  Level Minneapolis Center
Thu 11:57:01 AM 41.6683 -93.6142 267° West 410 472 36,000  Level Minneapolis Center
Thu 11:58:03 AM 41.6597 -93.7642 266° West 410 472 36,000  Level Minneapolis Center
Thu 11:59:05 AM 41.6508 -93.9419 266° West 408 470 36,000  Level Minneapolis Center
Thu 12:00:07 PM 41.6425 -94.0917 266° West 408 470 36,000  Level Minneapolis Center
Thu 12:01:09 PM 41.6317 -94.2511 265° West 416 479 36,000  Level Minneapolis Center
Thu 12:02:11 PM 41.6219 -94.4050 265° West 417 480 36,000  Level Minneapolis Center
Thu 12:03:14 PM 41.6122 -94.5558 265° West 411 473 36,000  Level Minneapolis Center
Thu 12:04:16 PM 41.6028 -94.7086 265° West 414 476 36,000  Level Minneapolis Center
Thu 12:05:18 PM 41.5928 -94.8597 265° West 410 472 36,000  Level Minneapolis Center
Thu 12:06:20 PM 41.5814 -95.0394 265° West 405 466 36,000  Level Minneapolis Center
Thu 12:07:22 PM 41.5703 -95.1908 264° West 408 470 36,000  Level Minneapolis Center
Thu 12:08:24 PM 41.5600 -95.3425 265° West 412 474 36,000  Level Minneapolis Center
Thu 12:09:26 PM 41.5486 -95.4914 264° West 406 467 36,000  Level Minneapolis Center
Thu 12:10:28 PM 41.5369 -95.6558 265° West 406 467 36,000  Level Minneapolis Center
Thu 12:11:30 PM 41.5247 -95.8061 264° West 408 470 36,000  Level Minneapolis Center
Thu 12:12:32 PM 41.5147 -95.9575 265° West 409 471 36,000  Level Minneapolis Center
Thu 12:13:34 PM 41.5050 -96.1067 265° West 406 467 36,000  Level Minneapolis Center
Thu 12:14:36 PM 41.4914 -96.2864 264° West 407 468 36,000  Level Minneapolis Center
Thu 12:15:38 PM 41.4800 -96.4408 264° West 407 468 36,000  Level Minneapolis Center
Thu 12:16:40 PM 41.4839 -96.5903 272° West 406 467 36,000  Level Minneapolis Center
Thu 12:17:43 PM 41.4872 -96.7400 272° West 405 466 36,000  Level Minneapolis Center
Thu 12:18:45 PM 41.4908 -96.8903 272° West 406 467 36,000  Level Minneapolis Center
Thu 12:19:47 PM 41.4931 -97.0414 271° West 407 468 36,000 48 Level Minneapolis Center
Thu 12:20:49 PM 41.4958 -97.1914 271° West 406 467 36,100 532 Climbing Minneapolis Center
Thu 12:21:51 PM 41.4994 -97.3681 272° West 399 459 37,100 726 Climbing Minneapolis Center
Thu 12:22:53 PM 41.5017 -97.5125 271° West 392 451 37,600 435 Climbing Minneapolis Center
Thu 12:23:55 PM 41.5036 -97.6567 271° West 389 448 38,000 129 Climbing Minneapolis Center
Thu 12:25:59 PM 41.5081 -97.9478 271° West 395 455 38,000  Level Minneapolis Center
Thu 12:27:01 PM 41.5100 -98.1250 271° West 404 465 38,000  Level Minneapolis Center
Thu 12:28:03 PM 41.5114 -98.2778 271° West 410 472 38,000  Level Minneapolis Center
Thu 12:29:05 PM 41.5131 -98.4303 271° West 412 474 38,000  Level Minneapolis Center
Thu 12:30:08 PM 41.5128 -98.5869 270° West 411 473 38,000  Level Minneapolis Center
Thu 12:31:10 PM 41.5131 -98.7400 270° West 412 474 38,000  Level Minneapolis Center
Thu 12:32:12 PM 41.5144 -98.8931 271° West 413 475 38,000  Level Minneapolis Center
Thu 12:33:14 PM 41.5144 -99.0456 270° West 413 475 38,000 48 Level Minneapolis Center
Thu 12:34:16 PM 41.5217 -99.2267 273° West 410 472 38,100  Climbing Minneapolis Center
Thu 12:35:18 PM 41.5356 -99.3772 277° West 408 470 38,000 -48 Descending Minneapolis Center
Thu 12:36:20 PM 41.5444 -99.5297 275° West 410 472 38,000  Level Minneapolis Center
Thu 12:37:22 PM 41.5547 -99.6831 275° West 412 474 38,000  Level Minneapolis Center
Thu 12:38:24 PM 41.5608 -99.8350 273° West 413 475 38,000  Level Minneapolis Center
Thu 12:39:26 PM 41.5664 -99.9867 273° West 411 473 38,000  Level Minneapolis Center
Thu 12:40:28 PM 41.5742 -100.1694 273° West 411 473 38,000  Level Minneapolis Center
Thu 12:41:40 PM 41.5811 -100.3422 273° West 409 471 38,000  Level Denver Center
Thu 12:42:42 PM 41.5858 -100.4844 273° West 406 467 38,000  Level Denver Center
Thu 12:43:44 PM 41.5936 -100.6531 274° West 407 468 38,000  Level Denver Center
Thu 12:44:46 PM 41.5981 -100.7981 272° West 410 472 38,000  Level Denver Center
Thu 12:45:48 PM 41.6042 -100.9669 273° West 410 472 38,000  Level Denver Center
Thu 12:46:50 PM 41.6086 -101.1117 272° West 410 472 38,000  Level Denver Center
Thu 12:47:52 PM 41.6142 -101.2831 273° West 413 475 38,000  Level Denver Center
Thu 12:48:54 PM 41.6172 -101.4297 272° West 413 475 38,000  Level Denver Center
Thu 12:49:56 PM 41.6228 -101.6011 273° West 415 478 38,000  Level Denver Center
Thu 12:50:58 PM 41.6272 -101.7472 272° West 413 475 38,000  Level Denver Center
Thu 12:52:00 PM 41.6311 -101.9181 272° West 413 475 38,000  Level Denver Center
Thu 12:53:02 PM 41.6333 -102.0406 271° West 414 476 38,000  Level Denver Center
Thu 12:55:07 PM 41.6408 -102.3869 272° West 420 483 38,000  Level Denver Center
Thu 12:56:09 PM 41.6439 -102.5589 271° West 417 480 38,000  Level Denver Center
Thu 12:57:11 PM 41.6469 -102.7200 272° West 418 481 38,000  Level Denver Center
Thu 12:58:13 PM 41.6500 -102.8683 272° West 418 481 38,000  Level Denver Center
Thu 12:59:15 PM 41.6528 -103.0408 271° West 417 480 38,000  Level Denver Center
Thu 01:00:17 PM 41.6553 -103.1897 271° West 418 481 38,000  Level Denver Center
Thu 01:01:19 PM 41.6567 -103.3375 271° West 417 480 38,000  Level Denver Center
Thu 01:02:21 PM 41.6589 -103.5100 271° West 415 478 38,000  Level Denver Center
Thu 01:03:23 PM 41.6611 -103.6583 271° West 415 478 38,000  Level Denver Center
Thu 01:04:25 PM 41.6622 -103.8314 271° West 417 480 38,000  Level Denver Center
Thu 01:05:27 PM 41.6636 -103.9792 271° West 416 479 38,000  Level Denver Center
Thu 01:06:29 PM 41.6644 -104.1553 270° West 422 486 38,000  Level Denver Center
Thu 01:07:31 PM 41.6647 -104.3047 270° West 421 484 38,000  Level Denver Center
Thu 01:08:33 PM 41.6739 -104.4803 274° West 425 489 38,000  Level Denver Center
Thu 01:09:35 PM 41.7022 -104.6289 284° West 428 493 38,000  Level Denver Center
Thu 01:10:37 PM 41.7289 -104.7767 284° West 427 491 38,000  Level Denver Center
Thu 01:11:39 PM 41.7606 -104.9492 284° West 426 490 38,000  Level Denver Center
Thu 01:12:41 PM 41.7875 -105.0994 284° West 430 495 38,000  Level Denver Center
Thu 01:13:43 PM 41.8189 -105.2747 284° West 432 497 38,000  Level Denver Center
Thu 01:14:45 PM 41.8458 -105.4269 283° West 436 502 38,000  Level Denver Center
Thu 01:15:47 PM 41.8764 -105.6022 283° West 433 498 38,000  Level Denver Center
Thu 01:16:49 PM 41.9025 -105.7553 283° West 438 504 38,000  Level Denver Center
Thu 01:17:51 PM 41.9333 -105.9322 283° West 434 499 38,000  Level Denver Center
Thu 01:18:53 PM 41.9558 -106.0592 283° West 436 502 38,000  Level Denver Center
Thu 01:19:56 PM 41.9886 -106.2617 282° West 435 501 38,000  Level Denver Center
Thu 01:20:58 PM 42.0156 -106.4150 283° West 437 503 38,000  Level Denver Center
Thu 01:22:00 PM 42.0433 -106.5789 283° West 429 494 38,000  Level Denver Center
Thu 01:23:02 PM 42.0681 -106.7278 283° West 427 491 38,000  Level Denver Center
Thu 01:24:04 PM 42.0953 -106.9000 282° West 424 488 38,000  Level Denver Center
Thu 01:25:06 PM 42.1206 -107.0497 283° West 427 491 38,000  Level Denver Center
Thu 01:26:08 PM 42.1478 -107.2244 282° West 430 495 38,000  Level Denver Center
Thu 01:27:10 PM 42.1711 -107.3725 282° West 425 489 38,000  Level Denver Center
Thu 01:28:12 PM 42.1983 -107.5464 282° West 425 489 38,000  Level Denver Center
Thu 01:29:27 PM 42.2311 -107.7467 283° West 425 489 38,000  Level Salt Lake Center
Thu 01:30:29 PM 42.2531 -107.8947 281° West 423 487 38,000  Level Salt Lake Center
Thu 01:31:31 PM 42.2783 -108.0667 281° West 421 484 38,000  Level Salt Lake Center
Thu 01:32:33 PM 42.3006 -108.2144 282° West 421 484 38,000  Level Salt Lake Center
Thu 01:33:35 PM 42.3225 -108.3625 281° West 422 486 38,000  Level Salt Lake Center
Thu 01:34:37 PM 42.3475 -108.5364 281° West 423 487 38,000  Level Salt Lake Center
Thu 01:35:39 PM 42.3689 -108.6861 281° West 425 489 38,000  Level Salt Lake Center
Thu 01:36:41 PM 42.3936 -108.8625 281° West 428 493 38,000  Level Salt Lake Center
Thu 01:37:43 PM 42.4153 -109.0142 281° West 430 495 38,000  Level Salt Lake Center
Thu 01:38:45 PM 42.4400 -109.1906 281° West 430 495 38,000  Level Salt Lake Center
Thu 01:39:47 PM 42.4608 -109.3447 280° West 433 498 38,000 48 Level Salt Lake Center
Thu 01:40:49 PM 42.4861 -109.5228 281° West 433 498 38,100  Climbing Salt Lake Center
Thu 01:41:51 PM 42.5069 -109.6753 281° West 432 497 38,000 -48 Descending Salt Lake Center
Thu 01:42:53 PM 42.5303 -109.8506 280° West 427 491 38,000  Level Salt Lake Center
Thu 01:43:55 PM 42.5489 -109.9956 280° West 413 475 38,000  Level Salt Lake Center
Thu 01:44:57 PM 42.5703 -110.1600 280° West 402 463 38,000  Level Salt Lake Center
Thu 01:45:59 PM 42.5886 -110.2983 280° West 393 452 38,000  Level Salt Lake Center
Thu 01:47:01 PM 42.6103 -110.4608 280° West 391 450 38,000  Level Salt Lake Center
Thu 01:48:03 PM 42.6283 -110.6025 280° West 398 458 38,000  Level Salt Lake Center
Thu 01:49:05 PM 42.6497 -110.7708 280° West 405 466 38,000  Level Salt Lake Center
Thu 01:50:07 PM 42.6678 -110.9167 280° West 409 471 38,000  Level Salt Lake Center
Thu 01:51:09 PM 42.6878 -111.0864 279° West 413 475 38,000  Level Salt Lake Center
Thu 01:52:11 PM 42.7069 -111.2383 280° West 412 474 38,000  Level Salt Lake Center
Thu 01:53:13 PM 42.7281 -111.4047 280° West 414 476 38,000  Level Salt Lake Center
Thu 01:54:15 PM 42.7458 -111.5503 279° West 410 472 38,000 -290 Level Salt Lake Center
Thu 01:55:17 PM 42.7656 -111.7186 279° West 405 466 37,400 -774 Descending Salt Lake Center
Thu 01:56:19 PM 42.7822 -111.8617 279° West 401 461 36,400 -677 Descending Salt Lake Center
Thu 01:57:21 PM 42.8000 -112.0258 278° West 394 453 36,000 -194 Descending Salt Lake Center
Thu 01:58:23 PM 42.8156 -112.1622 279° West 387 445 36,000  Level Salt Lake Center
Thu 01:59:25 PM 42.8319 -112.3089 279° West 396 456 36,000  Level Salt Lake Center
Thu 02:00:27 PM 42.8511 -112.4814 279° West 407 468 36,000  Level Salt Lake Center
Thu 02:01:30 PM 42.8672 -112.6281 279° West 410 472 36,000  Level Salt Lake Center
Thu 02:02:31 PM 42.9003 -112.7942 285° West 408 470 36,000  Level Salt Lake Center
Thu 02:03:33 PM 42.9314 -112.9389 286° West 412 474 36,000  Level Salt Lake Center
Thu 02:04:35 PM 42.9661 -113.1067 286° West 410 472 36,000  Level Salt Lake Center
Thu 02:05:37 PM 42.9942 -113.2481 285° West 404 465 36,000  Level Salt Lake Center
Thu 02:06:39 PM 43.0283 -113.4144 286° West 406 467 36,000  Level Salt Lake Center
Thu 02:07:42 PM 43.0575 -113.5597 285° West 413 475 36,000  Level Salt Lake Center
Thu 02:08:44 PM 43.0911 -113.7297 285° West 414 476 36,000 -290 Level Salt Lake Center
Thu 02:09:46 PM 43.1192 -113.8803 284° West 421 484 35,400 -1,065 Descending Salt Lake Center
Thu 02:10:48 PM 43.1489 -114.0292 285° West 403 464 33,800 -1,500 Descending Salt Lake Center
Thu 02:11:50 PM 43.1781 -114.1797 285° West 415 478 32,300 -1,984 Descending Salt Lake Center
Thu 02:12:52 PM 43.2122 -114.3414 286° West 407 468 29,700 -2,419 Descending Salt Lake Center
Thu 02:13:54 PM 43.2417 -114.4989 284° West 385 443 27,300 -2,177 Descending Salt Lake Center
Thu 02:14:56 PM 43.2678 -114.6322 285° West 379 436 25,200 -2,081 Descending Salt Lake Center
Thu 02:15:58 PM 43.2925 -114.7633 285° West 373 429 23,000 -2,226 Descending Salt Lake Center
Thu 02:17:00 PM 43.3208 -114.9139 285° West 365 420 20,600 -2,323 Descending Salt Lake Center
Thu 02:18:02 PM 43.3467 -115.0522 284° West 358 412 18,200 -2,226 Descending Salt Lake Center
Thu 02:19:04 PM 43.3706 -115.1850 284° West 344 396 16,000 -1,935 Descending Salt Lake Center
Thu 02:20:06 PM 43.3933 -115.3117 284° West 328 377 14,200 -1,355 Descending Salt Lake Center
Thu 02:21:08 PM 43.4147 -115.4286 284° West 301 346 13,200 -919 Descending Salt Lake Center
Thu 02:22:10 PM 43.4314 -115.5206 284° West 262 302 12,300 -1,161 Descending Salt Lake Center
Thu 02:23:12 PM 43.4475 -115.6108 284° West 234 269 10,800 -1,113 Descending Salt Lake Center
Thu 02:24:14 PM 43.4644 -115.7025 284° West 237 273 10,000 -435 Descending Salt Lake Center
Thu 02:25:16 PM 43.4736 -115.7967 278° West 239 275 9,900 -532 Descending Salt Lake Center
Thu 02:26:18 PM 43.4847 -115.8897 279° West 236 272 8,900 -1,452 Descending Salt Lake Center
Thu 02:27:20 PM 43.4922 -115.9722 277° West 210 242 6,900 -1,597 Descending Salt Lake Center
Thu 02:28:22 PM 43.5028 -116.0394 282° West 175 201 5,600 -1,258 Descending Salt Lake Center

Login

Don't have an account? Register now (free) for customized features, flight alerts, and more!